Time;durP1;ratioP1;P1;durP2;ratioP2;P2;SDS_P1;SDS_P2;PMS_P1;PMS_P2;Temp;Humidity;BMP_temperature;BMP_pressure;BME280_temperature;BME280_humidity;BME280_pressure;Samples;Min_cycle;Max_cycle;Signal;HPM_P1;HPM_P2
2023/04/27 00:01:35;;;;;;;15.20;6.70;;;2.30;99.90;;;;;;5056774;28;20047;-58
2023/04/27 00:04:05;;;;;;;11.90;5.90;;;2.30;99.90;;;;;;5073185;28;20051;-58
2023/04/27 00:06:31;;;;;;;17.98;6.88;;;2.40;99.90;;;;;;5075184;28;20044;-57
2023/04/27 00:08:58;;;;;;;16.33;6.93;;;2.40;99.90;;;;;;5074808;28;20062;-59
2023/04/27 00:11:24;;;;;;;13.18;6.88;;;2.40;99.90;;;;;;5076026;28;20040;-58
2023/04/27 00:13:50;;;;;;;15.45;6.63;;;2.50;99.90;;;;;;5051942;28;20196;-59
2023/04/27 00:16:16;;;;;;;16.80;7.22;;;2.60;99.90;;;;;;5074964;28;20047;-61
2023/04/27 00:18:41;;;;;;;12.27;6.35;;;2.70;99.90;;;;;;5073104;28;20091;-58
2023/04/27 00:21:08;;;;;;;17.55;6.60;;;2.80;99.90;;;;;;5055696;28;20036;-58
2023/04/27 00:23:34;;;;;;;13.85;6.43;;;2.90;99.90;;;;;;5069795;28;20044;-58
2023/04/27 00:26:00;;;;;;;16.75;6.95;;;2.90;99.90;;;;;;5064292;28;20123;-59
2023/04/27 00:28:26;;;;;;;13.38;6.53;;;3.00;99.90;;;;;;5063290;28;20127;-56
2023/04/27 00:30:53;;;;;;;16.33;6.63;;;3.10;99.90;;;;;;5064953;28;20041;-57
2023/04/27 00:33:19;;;;;;;13.75;7.13;;;3.10;99.90;;;;;;5063775;28;20166;-56
2023/04/27 00:35:45;;;;;;;18.85;6.43;;;3.20;99.90;;;;;;5063831;28;20044;-59
2023/04/27 00:38:12;;;;;;;16.67;6.95;;;3.20;99.90;;;;;;5065189;28;20098;-58
2023/04/27 00:40:38;;;;;;;14.52;6.88;;;3.20;99.90;;;;;;5063500;28;20036;-59
2023/04/27 00:43:04;;;;;;;15.73;6.70;;;3.20;99.90;;;;;;5046946;28;20507;-57
2023/04/27 00:45:30;;;;;;;12.60;6.43;;;3.30;99.90;;;;;;5063327;28;20083;-58
2023/04/27 00:47:57;;;;;;;19.88;6.28;;;3.30;99.90;;;;;;5072648;28;20040;-58
2023/04/27 00:50:31;;;;;;;15.40;7.05;;;3.40;99.90;;;;;;5085244;28;20110;-58
2023/04/27 00:52:58;;;;;;;16.92;6.30;;;3.50;99.90;;;;;;5083415;28;20067;-58
2023/04/27 00:55:24;;;;;;;13.98;6.45;;;3.60;99.90;;;;;;5083547;28;20051;-58
2023/04/27 00:57:50;;;;;;;14.57;6.38;;;3.70;99.90;;;;;;5072116;28;20140;-61
2023/04/27 01:00:16;;;;;;;16.05;6.53;;;3.70;99.90;;;;;;5064190;28;20336;-58
2023/04/27 01:02:42;;;;;;;13.05;5.97;;;3.80;99.90;;;;;;5057273;28;20502;-59
2023/04/27 01:05:09;;;;;;;15.88;6.40;;;3.80;99.90;;;;;;5063478;28;20244;-59
2023/04/27 01:07:38;;;;;;;12.43;6.50;;;3.90;99.90;;;;;;5063375;28;20286;-59
2023/04/27 01:10:05;;;;;;;17.38;7.05;;;3.90;99.90;;;;;;5063279;28;20070;-59
2023/04/27 01:12:31;;;;;;;16.30;6.43;;;3.90;99.90;;;;;;5064377;28;20221;-60
2023/04/27 01:14:57;;;;;;;12.73;6.30;;;3.90;99.90;;;;;;5063276;28;20602;-59
2023/04/27 01:17:23;;;;;;;14.43;6.57;;;4.00;99.90;;;;;;5063412;28;20064;-58
2023/04/27 01:19:50;;;;;;;13.65;7.20;;;4.00;99.90;;;;;;5064671;28;20535;-59
2023/04/27 01:22:16;;;;;;;14.88;7.07;;;3.90;99.90;;;;;;5063482;28;20041;-59
2023/04/27 01:24:42;;;;;;;13.35;8.00;;;3.90;99.90;;;;;;5063085;28;20381;-57
2023/04/27 01:27:08;;;;;;;15.60;7.30;;;3.80;99.90;;;;;;5063084;28;20055;-59
2023/04/27 01:29:34;;;;;;;16.17;6.65;;;3.80;99.90;;;;;;5064029;28;20166;-59
2023/04/27 01:31:59;;;;;;;15.30;6.82;;;3.70;99.90;;;;;;5067008;28;20151;-57
2023/04/27 01:34:25;;;;;;;15.98;6.97;;;3.60;99.90;;;;;;5066932;28;20089;-60
2023/04/27 01:36:51;;;;;;;14.75;7.28;;;3.50;99.90;;;;;;5068378;28;20076;-58
2023/04/27 01:39:16;;;;;;;12.35;7.22;;;3.40;99.90;;;;;;5068041;28;20044;-59
2023/04/27 01:41:42;;;;;;;15.73;6.68;;;3.30;99.90;;;;;;5068546;28;20044;-59
2023/04/27 01:44:08;;;;;;;12.80;7.38;;;3.10;99.90;;;;;;5067174;28;20377;-59
2023/04/27 01:46:34;;;;;;;13.10;7.57;;;3.00;99.90;;;;;;5066695;28;20052;-58
2023/04/27 01:49:00;;;;;;;15.18;7.38;;;2.90;99.90;;;;;;5085954;28;20044;-59
2023/04/27 01:51:26;;;;;;;18.98;8.25;;;2.80;99.90;;;;;;5079698;28;20241;-59
2023/04/27 01:53:52;;;;;;;15.30;7.85;;;2.80;99.90;;;;;;5068059;28;20085;-60
2023/04/27 01:56:17;;;;;;;15.63;7.22;;;2.70;99.90;;;;;;5067786;28;20041;-60
2023/04/27 01:58:43;;;;;;;14.25;7.90;;;2.60;99.90;;;;;;5066358;28;20067;-59
2023/04/27 02:01:10;;;;;;;14.65;7.05;;;2.60;99.90;;;;;;5073109;28;20451;-57
2023/04/27 02:03:36;;;;;;;16.17;8.43;;;2.50;99.90;;;;;;5070814;28;20040;-59
2023/04/27 02:06:01;;;;;;;17.45;8.15;;;2.50;99.90;;;;;;5067842;28;20031;-58
2023/04/27 02:08:27;;;;;;;21.17;8.55;;;2.40;99.90;;;;;;5066391;28;20435;-59
2023/04/27 02:10:53;;;;;;;17.40;7.60;;;2.40;99.90;;;;;;5066377;28;20078;-58
2023/04/27 02:13:20;;;;;;;18.27;8.40;;;2.30;99.90;;;;;;5049783;28;20488;-59
2023/04/27 02:15:46;;;;;;;15.32;8.32;;;2.30;99.90;;;;;;5067649;28;20052;-60
2023/04/27 02:18:13;;;;;;;16.15;7.07;;;2.30;99.90;;;;;;5070531;28;20078;-59
2023/04/27 02:20:38;;;;;;;15.40;7.72;;;2.30;99.90;;;;;;5066139;28;20040;-58
2023/04/27 02:23:05;;;;;;;17.55;7.55;;;2.20;99.90;;;;;;5049563;28;20075;-59
2023/04/27 02:25:31;;;;;;;18.20;8.63;;;2.20;99.90;;;;;;5049488;28;20043;-58
2023/04/27 02:27:57;;;;;;;15.63;8.10;;;2.20;99.90;;;;;;5066254;28;20045;-60
2023/04/27 02:30:22;;;;;;;17.05;8.30;;;2.10;99.90;;;;;;5067134;28;20063;-59
2023/04/27 02:32:48;;;;;;;17.92;8.07;;;2.10;99.90;;;;;;5067195;28;20388;-59
2023/04/27 02:35:14;;;;;;;18.15;8.48;;;2.10;99.90;;;;;;5066181;28;20105;-58
2023/04/27 02:37:40;;;;;;;17.75;8.80;;;2.10;99.90;;;;;;5066132;28;20048;-59
2023/04/27 02:40:07;;;;;;;15.70;7.65;;;2.10;99.90;;;;;;5082422;28;20082;-59
2023/04/27 02:42:33;;;;;;;17.80;7.80;;;2.10;99.90;;;;;;5065969;28;20510;-59
2023/04/27 02:44:58;;;;;;;14.38;8.60;;;2.10;99.90;;;;;;5067875;28;20040;-57
2023/04/27 02:47:24;;;;;;;19.70;8.48;;;2.00;99.90;;;;;;5081887;28;20040;-59
2023/04/27 02:49:50;;;;;;;22.17;8.20;;;2.00;99.90;;;;;;5074444;28;20032;-58
2023/04/27 02:52:16;;;;;;;16.52;8.38;;;2.00;99.90;;;;;;5085925;28;20124;-58
2023/04/27 02:54:41;;;;;;;20.20;8.88;;;2.00;99.90;;;;;;5085444;28;20122;-57
2023/04/27 02:57:07;;;;;;;17.30;8.50;;;2.00;99.90;;;;;;5073421;28;20109;-57
2023/04/27 02:59:33;;;;;;;16.33;7.90;;;1.90;99.90;;;;;;5067154;28;20415;-60
2023/04/27 03:01:58;;;;;;;13.07;7.00;;;1.90;99.90;;;;;;5077889;28;20122;-58
2023/04/27 03:04:24;;;;;;;13.85;7.50;;;1.80;99.90;;;;;;5065807;28;20040;-60
2023/04/27 03:06:50;;;;;;;15.02;7.88;;;1.70;99.90;;;;;;5075601;28;20044;-58
2023/04/27 03:09:16;;;;;;;14.40;7.20;;;1.60;99.90;;;;;;5087101;28;20052;-59
2023/04/27 03:11:42;;;;;;;15.68;7.82;;;1.50;99.90;;;;;;5086975;28;20101;-59
2023/04/27 03:14:08;;;;;;;20.25;8.27;;;1.40;99.90;;;;;;5072599;28;20506;-58
2023/04/27 03:16:34;;;;;;;17.58;8.27;;;1.40;99.90;;;;;;5066666;28;20158;-58
2023/04/27 03:19:00;;;;;;;19.15;8.25;;;1.40;99.90;;;;;;5066337;28;20036;-60
2023/04/27 03:21:27;;;;;;;19.73;8.25;;;1.40;99.90;;;;;;5085209;28;20047;-59
2023/04/27 03:23:53;;;;;;;16.98;7.80;;;1.30;99.90;;;;;;5048876;28;20064;-58
2023/04/27 03:26:19;;;;;;;15.38;7.65;;;1.20;99.90;;;;;;5064834;28;20401;-58
2023/04/27 03:28:45;;;;;;;16.73;8.45;;;1.20;99.90;;;;;;5066297;28;20036;-58
2023/04/27 03:31:12;;;;;;;15.15;7.72;;;1.20;99.90;;;;;;5047839;28;20661;-60
2023/04/27 03:33:39;;;;;;;20.05;8.88;;;1.10;99.90;;;;;;5066443;28;20047;-58
2023/04/27 03:36:06;;;;;;;17.27;7.80;;;1.10;99.90;;;;;;5064749;28;20531;-57
2023/04/27 03:38:33;;;;;;;20.45;8.40;;;1.00;99.90;;;;;;5065965;28;20044;-58
2023/04/27 03:40:58;;;;;;;18.65;8.15;;;1.00;99.90;;;;;;5048069;28;20407;-59
2023/04/27 03:43:25;;;;;;;19.55;8.25;;;1.10;99.90;;;;;;5065907;28;20040;-56
2023/04/27 03:45:51;;;;;;;18.70;8.48;;;1.10;99.90;;;;;;5064519;28;20048;-59
2023/04/27 03:48:18;;;;;;;21.88;9.10;;;1.00;99.90;;;;;;5060262;28;20123;-58
2023/04/27 03:50:45;;;;;;;19.67;8.55;;;1.00;99.90;;;;;;5084634;28;20043;-59
2023/04/27 03:53:11;;;;;;;23.45;9.65;;;0.90;99.90;;;;;;5085595;28;20056;-58
2023/04/27 03:55:41;;;;;;;22.15;9.20;;;0.80;99.90;;;;;;5074936;28;20086;-58
2023/04/27 03:58:09;;;;;;;16.40;7.90;;;0.80;99.90;;;;;;5065612;28;20341;-58
2023/04/27 04:00:36;;;;;;;20.20;8.88;;;0.80;99.90;;;;;;5065246;28;20052;-57
2023/04/27 04:03:02;;;;;;;18.42;8.95;;;0.70;99.90;;;;;;5047778;28;20119;-59
2023/04/27 04:05:29;;;;;;;22.48;9.40;;;0.70;99.90;;;;;;5065770;28;20495;-59
2023/04/27 04:07:56;;;;;;;16.20;8.13;;;0.60;99.90;;;;;;5064359;28;20488;-56
2023/04/27 04:10:22;;;;;;;20.00;9.55;;;0.60;99.90;;;;;;5065511;28;20044;-58
2023/04/27 04:12:48;;;;;;;25.90;8.93;;;0.60;99.90;;;;;;5065979;28;20045;-57
2023/04/27 04:15:14;;;;;;;19.75;9.15;;;0.60;99.90;;;;;;5067083;28;20382;-58
2023/04/27 04:17:39;;;;;;;19.05;9.38;;;0.60;99.90;;;;;;5083204;28;20036;-57
2023/04/27 04:20:09;;;;;;;20.55;9.07;;;0.60;99.90;;;;;;5086028;28;20040;-57
2023/04/27 04:22:36;;;;;;;19.85;8.90;;;0.60;99.90;;;;;;5085736;28;20395;-58
2023/04/27 04:25:03;;;;;;;20.95;8.27;;;0.60;99.90;;;;;;5065835;28;20131;-58
2023/04/27 04:27:28;;;;;;;18.23;8.23;;;0.60;99.90;;;;;;5066410;28;20134;-59
2023/04/27 04:29:54;;;;;;;20.77;8.32;;;0.70;99.90;;;;;;5064913;28;20731;-59
2023/04/27 04:32:21;;;;;;;18.77;8.95;;;0.80;99.90;;;;;;5063856;28;20037;-57
2023/04/27 04:34:50;;;;;;;16.45;8.68;;;0.90;99.90;;;;;;5063837;28;20546;-58
2023/04/27 04:37:17;;;;;;;20.88;8.80;;;1.00;99.90;;;;;;5046754;28;20399;-58
2023/04/27 04:39:43;;;;;;;23.58;9.43;;;1.10;99.90;;;;;;5065067;28;20043;-58
2023/04/27 04:42:09;;;;;;;17.27;8.77;;;1.30;99.90;;;;;;5063885;28;20046;-59
2023/04/27 04:44:35;;;;;;;16.95;8.55;;;1.40;99.90;;;;;;5063776;28;20067;-59
2023/04/27 04:47:01;;;;;;;19.75;8.98;;;1.60;99.90;;;;;;5064858;28;20450;-60
2023/04/27 04:49:27;;;;;;;18.42;8.57;;;1.70;99.90;;;;;;5063950;28;20141;-57
2023/04/27 04:51:53;;;;;;;24.58;10.82;;;1.90;99.90;;;;;;5063787;28;20041;-58
2023/04/27 04:54:18;;;;;;;17.55;8.88;;;2.10;99.90;;;;;;5065295;28;20051;-60
2023/04/27 04:56:44;;;;;;;18.35;8.63;;;2.30;99.90;;;;;;5072441;28;20043;-58
2023/04/27 04:59:10;;;;;;;23.85;10.77;;;2.50;99.90;;;;;;5071926;28;20056;-58
2023/04/27 05:01:36;;;;;;;22.58;9.35;;;2.80;99.90;;;;;;5066514;28;20047;-59
2023/04/27 05:04:01;;;;;;;18.95;9.50;;;3.00;99.90;;;;;;5067101;28;20094;-60
2023/04/27 05:06:28;;;;;;;19.80;9.85;;;3.20;99.90;;;;;;5068855;28;20120;-60
2023/04/27 05:08:54;;;;;;;21.50;8.85;;;3.40;99.90;;;;;;5089632;28;20046;-57
2023/04/27 05:11:20;;;;;;;14.45;7.50;;;3.60;99.90;;;;;;5079182;28;20517;-58
2023/04/27 05:13:46;;;;;;;15.20;7.57;;;3.80;99.90;;;;;;5067523;28;20366;-58
2023/04/27 05:16:12;;;;;;;14.13;7.57;;;4.10;99.90;;;;;;5068651;28;20036;-59
2023/04/27 05:18:38;;;;;;;14.95;7.78;;;4.30;99.90;;;;;;5066885;28;20059;-58
2023/04/27 05:21:04;;;;;;;16.67;7.38;;;4.60;99.90;;;;;;5069145;28;20420;-60
2023/04/27 05:23:30;;;;;;;14.57;7.57;;;4.90;99.90;;;;;;5068634;28;20047;-58
2023/04/27 05:25:56;;;;;;;14.27;6.90;;;5.40;99.90;;;;;;5068539;28;20040;-60
2023/04/27 05:28:21;;;;;;;13.30;7.20;;;5.80;99.90;;;;;;5068586;28;20053;-59
2023/04/27 05:30:47;;;;;;;13.35;7.07;;;6.40;99.90;;;;;;5033684;28;20044;-59
2023/04/27 05:33:13;;;;;;;12.25;6.80;;;6.70;99.90;;;;;;5050753;28;20131;-59
2023/04/27 05:35:39;;;;;;;16.02;6.93;;;7.30;99.90;;;;;;5068882;28;20048;-59
2023/04/27 05:38:05;;;;;;;11.93;6.80;;;7.70;99.90;;;;;;5050419;28;20438;-60
2023/04/27 05:40:30;;;;;;;14.60;6.60;;;7.90;99.90;;;;;;5066814;28;20414;-58
2023/04/27 05:42:56;;;;;;;14.68;6.93;;;8.00;99.90;;;;;;5066875;28;20036;-59
2023/04/27 05:45:22;;;;;;;11.40;6.78;;;8.30;99.90;;;;;;5067844;28;20547;-57
2023/04/27 05:47:48;;;;;;;12.05;6.28;;;8.80;99.90;;;;;;5066667;28;20037;-58
2023/04/27 05:50:13;;;;;;;17.70;7.00;;;9.20;99.90;;;;;;5066694;28;20048;-60
2023/04/27 05:52:39;;;;;;;10.40;5.90;;;9.60;99.90;;;;;;5050186;28;20102;-59
2023/04/27 05:55:06;;;;;;;12.85;6.35;;;9.80;99.90;;;;;;5068294;28;20407;-59
2023/04/27 05:57:32;;;;;;;8.75;4.90;;;10.00;99.90;;;;;;5067417;28;20147;-59
2023/04/27 05:59:59;;;;;;;11.80;4.93;;;10.20;99.90;;;;;;5066439;28;20250;-58
2023/04/27 06:02:25;;;;;;;9.80;5.03;;;9.60;99.90;;;;;;5065424;28;20047;-59
2023/04/27 06:04:51;;;;;;;11.32;5.95;;;9.10;99.90;;;;;;5066875;28;20036;-60
2023/04/27 06:07:16;;;;;;;12.35;4.93;;;8.70;99.90;;;;;;5065562;28;20041;-58
2023/04/27 06:09:42;;;;;;;10.65;5.20;;;8.40;99.90;;;;;;5064989;28;20066;-59
2023/04/27 06:12:08;;;;;;;12.18;5.07;;;8.20;99.90;;;;;;5083533;28;20513;-59
2023/04/27 06:14:35;;;;;;;9.50;4.82;;;8.00;99.90;;;;;;5052097;28;20080;-60
2023/04/27 06:17:02;;;;;;;11.40;4.35;;;7.90;99.90;;;;;;5066368;28;20078;-58
2023/04/27 06:19:28;;;;;;;12.77;4.28;;;7.90;99.90;;;;;;5048551;28;20483;-61
2023/04/27 06:21:54;;;;;;;15.88;4.65;;;7.90;99.90;;;;;;5066475;28;20048;-60
2023/04/27 06:24:21;;;;;;;10.85;4.55;;;8.00;99.90;;;;;;5066669;28;20074;-59
2023/04/27 06:26:50;;;;;;;10.13;4.65;;;8.00;99.90;;;;;;5066256;28;20461;-58
2023/04/27 06:29:16;;;;;;;9.10;4.05;;;8.00;99.90;;;;;;5076960;28;20127;-60
2023/04/27 06:31:41;;;;;;;9.75;3.70;;;8.20;99.90;;;;;;5086304;28;20123;-61
2023/04/27 06:34:07;;;;;;;7.22;3.10;;;8.50;99.90;;;;;;5068110;28;20047;-61
2023/04/27 06:36:33;;;;;;;13.95;3.75;;;8.70;99.90;;;;;;5064883;28;20583;-58
2023/04/27 06:38:59;;;;;;;6.65;3.22;;;9.00;99.90;;;;;;5064770;28;20094;-58
2023/04/27 06:41:25;;;;;;;9.43;3.42;;;9.30;99.90;;;;;;5048047;28;20066;-59
2023/04/27 06:43:52;;;;;;;7.03;2.97;;;9.50;99.90;;;;;;5065954;28;20270;-59
2023/04/27 06:46:18;;;;;;;7.40;2.95;;;9.60;99.90;;;;;;5064810;28;20514;-59
2023/04/27 06:48:45;;;;;;;10.40;3.55;;;9.50;99.90;;;;;;5047887;28;20044;-60
2023/04/27 06:51:11;;;;;;;9.10;3.00;;;9.40;99.90;;;;;;5066261;28;20652;-58
2023/04/27 06:53:38;;;;;;;11.27;3.67;;;9.70;99.90;;;;;;5031201;28;20071;-58
2023/04/27 06:56:05;;;;;;;7.68;2.83;;;10.40;99.90;;;;;;5066167;28;20062;-58
2023/04/27 06:58:31;;;;;;;7.28;2.80;;;11.00;99.90;;;;;;5024087;28;1173010;-60
2023/04/27 07:00:57;;;;;;;10.77;2.63;;;11.30;99.90;;;;;;5070205;28;20040;-58
2023/04/27 07:03:22;;;;;;;7.22;2.70;;;11.50;98.30;;;;;;5073619;28;20044;-58
2023/04/27 07:05:50;;;;;;;6.25;2.60;;;11.60;98.90;;;;;;5071956;28;20410;-61
2023/04/27 07:08:16;;;;;;;10.13;2.55;;;11.50;99.30;;;;;;5065372;28;20041;-59
2023/04/27 07:10:41;;;;;;;6.97;2.60;;;11.40;99.10;;;;;;5048567;28;20047;-59
2023/04/27 07:13:07;;;;;;;8.93;3.05;;;11.40;99.00;;;;;;5066619;28;20036;-59
2023/04/27 07:15:33;;;;;;;6.85;2.45;;;11.50;99.20;;;;;;5066368;28;20471;-58
2023/04/27 07:17:59;;;;;;;6.85;2.42;;;11.70;98.90;;;;;;5056609;28;20334;-58
2023/04/27 07:20:25;;;;;;;10.02;2.83;;;11.90;97.90;;;;;;5086794;28;20101;-59
2023/04/27 07:22:51;;;;;;;5.57;2.40;;;11.80;98.00;;;;;;5062030;28;20512;-59
2023/04/27 07:25:18;;;;;;;10.63;3.10;;;11.40;98.30;;;;;;5048481;28;20036;-58
2023/04/27 07:27:44;;;;;;;9.13;2.95;;;11.10;98.50;;;;;;5066046;28;20479;-60
2023/04/27 07:30:12;;;;;;;7.03;2.40;;;10.80;98.60;;;;;;5086099;28;20050;-60
2023/04/27 07:32:40;;;;;;;9.82;2.65;;;10.70;99.40;;;;;;5079569;28;20039;-59
2023/04/27 07:35:07;;;;;;;9.18;2.40;;;10.60;99.90;;;;;;5066304;28;20415;-60
2023/04/27 07:37:33;;;;;;;8.02;2.58;;;10.60;99.90;;;;;;5072704;28;20039;-58
2023/04/27 07:40:01;;;;;;;7.43;2.63;;;10.50;99.90;;;;;;5063564;28;20499;-60
2023/04/27 07:42:26;;;;;;;5.63;2.40;;;10.40;99.90;;;;;;5064912;28;20048;-59
2023/04/27 07:44:53;;;;;;;8.00;2.30;;;10.40;99.90;;;;;;5064651;28;20417;-59
2023/04/27 07:47:19;;;;;;;6.60;2.38;;;10.40;99.90;;;;;;5064460;28;20476;-60
2023/04/27 07:49:46;;;;;;;7.40;2.38;;;10.50;99.70;;;;;;5064628;28;20507;-59
2023/04/27 07:52:11;;;;;;;6.10;2.20;;;10.70;99.10;;;;;;5065992;28;20044;-59
2023/04/27 07:54:37;;;;;;;8.13;2.05;;;11.20;98.60;;;;;;5065902;28;20393;-60
2023/04/27 07:57:10;;;;;;;12.75;2.60;;;11.70;97.30;;;;;;5065851;28;20064;-59
2023/04/27 07:59:37;;;;;;;6.53;2.22;;;12.20;96.30;;;;;;5072807;28;20156;-59
2023/04/27 08:02:02;;;;;;;6.28;2.10;;;12.80;95.70;;;;;;5064108;28;20058;-60
2023/04/27 08:04:28;;;;;;;5.63;2.13;;;13.40;95.00;;;;;;5076682;28;20122;-60
2023/04/27 08:06:54;;;;;;;5.18;1.83;;;13.90;92.20;;;;;;5085530;28;20384;-60
2023/04/27 08:09:20;;;;;;;6.55;2.00;;;14.50;91.20;;;;;;5071603;28;20475;-60
2023/04/27 08:11:46;;;;;;;5.80;1.65;;;14.40;71.50;;;;;;5079893;28;20051;-60
2023/04/27 08:14:14;;;;;;;4.93;2.10;;;14.30;64.80;;;;;;5079429;28;20483;-59
2023/04/27 08:16:41;;;;;;;10.30;2.20;;;14.30;63.70;;;;;;5083154;28;20066;-61
2023/04/27 08:19:10;;;;;;;5.57;2.13;;;14.40;64.30;;;;;;5082944;28;20083;-58
2023/04/27 08:21:37;;;;;;;6.10;2.00;;;14.60;66.20;;;;;;5081222;28;20074;-60
2023/04/27 08:24:04;;;;;;;7.95;2.30;;;14.80;67.00;;;;;;5085350;28;20056;-59
2023/04/27 08:26:30;;;;;;;6.03;2.00;;;15.10;67.60;;;;;;5077626;28;20072;-61
2023/04/27 08:28:56;;;;;;;8.07;1.90;;;15.40;66.60;;;;;;5063951;28;20480;-60
2023/04/27 08:31:23;;;;;;;6.13;1.90;;;15.50;64.20;;;;;;5046770;28;20502;-59
2023/04/27 08:33:50;;;;;;;8.65;2.28;;;15.50;61.00;;;;;;5065223;28;20044;-62
2023/04/27 08:36:15;;;;;;;9.70;2.38;;;14.90;57.00;;;;;;5063761;28;20116;-59
2023/04/27 08:38:41;;;;;;;6.72;2.60;;;14.40;57.00;;;;;;5047169;28;20044;-60
2023/04/27 08:41:07;;;;;;;7.30;2.60;;;13.60;58.00;;;;;;5071888;28;20042;-60
2023/04/27 08:43:34;;;;;;;7.28;2.50;;;13.60;59.80;;;;;;5059972;28;20532;-58
2023/04/27 08:46:01;;;;;;;5.85;2.50;;;13.80;60.20;;;;;;5047305;28;20731;-60
2023/04/27 08:48:27;;;;;;;5.13;2.38;;;14.20;61.20;;;;;;5063652;28;20060;-60
2023/04/27 08:50:54;;;;;;;7.90;2.67;;;14.50;60.60;;;;;;5063972;28;20040;-60
2023/04/27 08:53:21;;;;;;;8.15;2.45;;;15.10;59.70;;;;;;5065159;28;20036;-59
2023/04/27 08:55:50;;;;;;;8.85;2.97;;;15.30;56.60;;;;;;5046516;28;20178;-60
2023/04/27 08:58:16;;;;;;;8.15;2.85;;;15.80;56.70;;;;;;5067144;28;20052;-61
2023/04/27 09:00:44;;;;;;;7.72;2.85;;;15.90;54.10;;;;;;5080780;28;20047;-59
2023/04/27 09:03:24;;;;;;;7.40;2.67;;;15.50;54.70;;;;;;5047039;28;20052;-60
2023/04/27 09:05:50;;;;;;;5.93;2.60;;;15.40;53.30;;;;;;5065081;28;20448;-60
2023/04/27 09:08:16;;;;;;;7.93;2.92;;;15.10;55.80;;;;;;5046948;28;20155;-60
2023/04/27 09:10:50;;;;;;;7.47;3.00;;;15.50;56.90;;;;;;5063678;28;20060;-61
2023/04/27 09:13:16;;;;;;;6.13;2.72;;;16.00;56.10;;;;;;5063657;28;20045;-62
2023/04/27 09:15:46;;;;;;;8.50;3.20;;;16.00;54.40;;;;;;5063139;28;20040;-60
2023/04/27 09:18:17;;;;;;;8.95;3.58;;;15.40;48.70;;;;;;5046413;28;20094;-61
2023/04/27 09:20:52;;;;;;;8.25;3.28;;;15.30;51.80;;;;;;5046555;28;20056;-63
2023/04/27 09:23:28;;;;;;;7.90;3.42;;;15.10;52.70;;;;;;5064804;28;20140;-60
2023/04/27 09:25:55;;;;;;;12.57;4.63;;;15.50;55.40;;;;;;5063146;28;20071;-59
2023/04/27 09:28:22;;;;;;;8.02;3.72;;;15.70;54.80;;;;;;5047907;28;20048;-61
2023/04/27 09:30:53;;;;;;;8.48;3.67;;;15.80;54.90;;;;;;5046751;28;20132;-59
2023/04/27 09:33:23;;;;;;;10.98;3.63;;;15.70;54.60;;;;;;5046620;28;20131;-59
2023/04/27 09:35:49;;;;;;;9.25;4.30;;;15.70;54.10;;;;;;5065160;28;20080;-59
2023/04/27 09:38:20;;;;;;;11.65;4.53;;;15.50;54.30;;;;;;5064556;28;20088;-61
2023/04/27 09:40:47;;;;;;;8.38;4.13;;;14.70;51.60;;;;;;5046607;28;20036;-60
2023/04/27 09:43:13;;;;;;;11.02;4.10;;;14.30;53.90;;;;;;5046251;28;20048;-57
2023/04/27 09:45:39;;;;;;;9.23;3.50;;;14.10;53.50;;;;;;5046503;28;20075;-60
2023/04/27 09:48:06;;;;;;;9.88;3.88;;;14.20;55.30;;;;;;5064344;28;20227;-61
2023/04/27 09:50:36;;;;;;;6.80;3.42;;;14.40;56.50;;;;;;5064347;28;20425;-56
2023/04/27 09:53:05;;;;;;;8.95;3.85;;;14.30;54.60;;;;;;5068471;28;20091;-60
2023/04/27 09:55:47;;;;;;;9.65;4.00;;;14.10;54.10;;;;;;5050002;28;20051;-60
2023/04/27 09:58:19;;;;;;;11.88;4.28;;;14.40;55.00;;;;;;5066545;28;20040;-58
2023/04/27 10:01:18;;;;;;;10.38;4.57;;;14.70;55.10;;;;;;5066242;28;20075;-59
2023/04/27 10:03:50;;;;;;;11.98;4.80;;;15.00;51.20;;;;;;5081200;28;20063;-59
2023/04/27 10:06:42;;;;;;;11.45;4.53;;;15.30;52.90;;;;;;5080682;28;20521;-61
2023/04/27 10:09:09;;;;;;;12.25;4.70;;;15.50;51.60;;;;;;5066532;28;20048;-60
2023/04/27 10:11:40;;;;;;;8.75;4.30;;;15.30;51.50;;;;;;5066519;28;20044;-59
2023/04/27 10:14:08;;;;;;;10.93;4.25;;;15.30;51.40;;;;;;5067752;28;20111;-60
2023/04/27 10:16:47;;;;;;;11.52;4.45;;;15.60;52.70;;;;;;5066334;28;20135;-58
2023/04/27 10:19:13;;;;;;;8.30;4.25;;;16.30;53.90;;;;;;5066242;28;20135;-58
2023/04/27 10:22:01;;;;;;;11.25;4.38;;;16.70;52.90;;;;;;5066528;28;20036;-58
2023/04/27 10:24:41;;;;;;;9.77;3.97;;;16.80;49.90;;;;;;5067783;28;20139;-59
2023/04/27 10:27:09;;;;;;;7.75;3.78;;;16.50;50.60;;;;;;5049627;28;20044;-60
2023/04/27 10:29:44;;;;;;;8.82;4.10;;;16.00;49.90;;;;;;5068799;28;20052;-58
2023/04/27 10:32:11;;;;;;;11.07;4.22;;;15.80;49.70;;;;;;5049841;28;20060;-59
2023/04/27 10:34:38;;;;;;;7.82;4.13;;;15.40;50.10;;;;;;5066071;28;20053;-59
2023/04/27 10:37:09;;;;;;;12.52;4.60;;;15.10;50.80;;;;;;5066189;28;20041;-60
2023/04/27 10:39:37;;;;;;;10.60;4.43;;;14.80;50.20;;;;;;5065970;28;20583;-59
2023/04/27 10:42:04;;;;;;;9.50;4.72;;;14.90;50.20;;;;;;5074752;28;20040;-60
2023/04/27 10:44:31;;;;;;;8.23;3.67;;;15.00;51.20;;;;;;5071662;28;20503;-61
2023/04/27 10:47:19;;;;;;;10.73;4.35;;;14.90;50.90;;;;;;5065643;28;20033;-59
2023/04/27 10:49:45;;;;;;;8.32;4.13;;;14.80;51.60;;;;;;5067081;28;20043;-59
2023/04/27 10:52:11;;;;;;;7.35;3.95;;;14.60;53.40;;;;;;5065885;28;20087;-59
2023/04/27 10:54:38;;;;;;;9.88;4.20;;;14.70;53.30;;;;;;5066638;28;20123;-61
2023/04/27 10:57:09;;;;;;;10.32;3.70;;;14.50;52.60;;;;;;5067041;28;20455;-60
2023/04/27 10:59:48;;;;;;;11.20;3.65;;;14.30;52.30;;;;;;5048590;28;20049;-59
2023/04/27 11:02:14;;;;;;;8.05;3.72;;;14.10;52.40;;;;;;5078326;28;20044;-59
2023/04/27 11:04:41;;;;;;;8.73;3.88;;;13.90;55.20;;;;;;5049133;28;20510;-59
2023/04/27 11:07:09;;;;;;;9.13;3.60;;;13.90;54.40;;;;;;5065577;28;20080;-59
2023/04/27 11:09:39;;;;;;;9.13;4.00;;;13.80;54.30;;;;;;5048159;28;20052;-60
2023/04/27 11:12:06;;;;;;;9.43;3.75;;;13.60;54.70;;;;;;5065661;28;20047;-61
2023/04/27 11:14:36;;;;;;;11.48;4.20;;;13.50;55.30;;;;;;5066655;28;20119;-58
2023/04/27 11:17:03;;;;;;;10.60;3.97;;;13.40;55.60;;;;;;5048511;28;20106;-60
2023/04/27 11:19:29;;;;;;;9.40;3.53;;;13.30;55.90;;;;;;5048281;28;20048;-61
2023/04/27 11:22:05;;;;;;;10.88;4.22;;;13.10;55.70;;;;;;5066865;28;20069;-59
2023/04/27 11:24:32;;;;;;;11.75;4.82;;;13.00;55.60;;;;;;5066227;28;20035;-60
2023/04/27 11:26:59;;;;;;;10.73;4.63;;;13.00;56.10;;;;;;5065251;28;20561;-62
2023/04/27 11:29:37;;;;;;;11.65;4.53;;;13.00;55.60;;;;;;5066503;28;20040;-58
2023/04/27 11:32:03;;;;;;;9.38;4.50;;;13.20;55.50;;;;;;5048661;28;20049;-62
2023/04/27 11:34:33;;;;;;;7.97;3.95;;;13.20;55.00;;;;;;5064810;28;20044;-58
2023/04/27 11:37:02;;;;;;;9.88;4.03;;;13.30;54.90;;;;;;5064958;28;20150;-59
2023/04/27 11:39:31;;;;;;;8.32;3.90;;;13.40;55.10;;;;;;5064953;28;20610;-60
2023/04/27 11:42:12;;;;;;;9.70;4.35;;;13.60;55.80;;;;;;5078956;28;20040;-59
2023/04/27 11:44:39;;;;;;;12.20;4.72;;;13.80;56.20;;;;;;5070697;28;20037;-60
2023/04/27 11:47:06;;;;;;;11.43;4.40;;;13.90;55.40;;;;;;5064758;28;20366;-60
2023/04/27 11:49:31;;;;;;;9.77;4.40;;;14.10;55.10;;;;;;5066641;28;20241;-60
2023/04/27 11:51:57;;;;;;;13.38;4.80;;;14.50;55.30;;;;;;5065945;28;20590;-59
2023/04/27 11:54:28;;;;;;;10.45;4.50;;;14.90;55.10;;;;;;5065836;28;20044;-60
2023/04/27 11:57:04;;;;;;;10.75;4.70;;;14.80;53.30;;;;;;5051052;28;20089;-58
2023/04/27 11:59:30;;;;;;;9.82;4.57;;;15.10;52.80;;;;;;5070321;28;20051;-60
2023/04/27 12:01:56;;;;;;;10.95;4.45;;;15.40;53.10;;;;;;5065405;28;20408;-58
2023/04/27 12:04:22;;;;;;;10.77;4.80;;;15.70;53.20;;;;;;5064235;28;20051;-60
2023/04/27 12:06:48;;;;;;;8.02;4.43;;;15.70;52.80;;;;;;5065606;28;20159;-58
2023/04/27 12:09:16;;;;;;;10.23;4.63;;;15.30;52.70;;;;;;5064186;28;20399;-59
2023/04/27 12:11:41;;;;;;;9.07;4.72;;;14.90;52.60;;;;;;5064016;28;20025;-59
2023/04/27 12:14:07;;;;;;;9.93;4.80;;;14.50;52.70;;;;;;5073876;28;20055;-59
2023/04/27 12:16:33;;;;;;;9.90;4.47;;;14.20;53.30;;;;;;5067930;28;20317;-59
2023/04/27 12:18:58;;;;;;;9.90;4.65;;;13.90;53.40;;;;;;5068573;28;20036;-58
2023/04/27 12:21:24;;;;;;;14.63;5.32;;;13.60;53.80;;;;;;5065946;28;20499;-59
2023/04/27 12:23:50;;;;;;;12.18;4.78;;;13.30;54.00;;;;;;5064284;28;20033;-58
2023/04/27 12:26:16;;;;;;;10.13;4.78;;;13.20;56.80;;;;;;5065373;28;20407;-59
2023/04/27 12:28:42;;;;;;;12.27;4.90;;;13.10;55.90;;;;;;5047526;28;20036;-59
2023/04/27 12:31:12;;;;;;;11.13;4.43;;;13.10;55.60;;;;;;5065511;28;20044;-60
2023/04/27 12:33:38;;;;;;;10.20;4.90;;;13.20;56.50;;;;;;5076895;28;20044;-57
2023/04/27 12:36:04;;;;;;;10.50;4.88;;;13.20;55.90;;;;;;5083298;28;20048;-62
2023/04/27 12:38:30;;;;;;;12.85;4.90;;;13.20;56.40;;;;;;5083514;28;20039;-58
2023/04/27 12:40:57;;;;;;;10.45;4.95;;;13.20;56.60;;;;;;5081656;28;20032;-58
2023/04/27 12:43:23;;;;;;;13.52;4.95;;;13.10;57.00;;;;;;5067598;28;20651;-63
2023/04/27 12:45:48;;;;;;;11.30;4.88;;;13.10;57.40;;;;;;5083710;28;20036;-60